Time;durP1;ratioP1;P1;durP2;ratioP2;P2;SDS_P1;SDS_P2;PMS_P1;PMS_P2;Temp;Humidity;BMP_temperature;BMP_pressure;BME280_temperature;BME280_humidity;BME280_pressure;Samples;Min_cycle;Max_cycle;Signal;HPM_P1;HPM_P2
2022/06/07 00:01:18;;;;;;;8.63;1.50;;;16.20;99.90;;;;;;4993593;28;20048;-65
2022/06/07 00:03:45;;;;;;;2.08;1.40;;;16.10;99.90;;;;;;4993624;28;20481;-65
2022/06/07 00:06:11;;;;;;;3.95;1.40;;;16.20;99.90;;;;;;4993688;28;20125;-65
2022/06/07 00:08:36;;;;;;;1.67;1.20;;;16.20;99.90;;;;;;4993609;28;20133;-65
2022/06/07 00:11:03;;;;;;;2.35;1.20;;;16.10;99.90;;;;;;4993531;28;20100;-64
2022/06/07 00:13:28;;;;;;;2.90;1.52;;;16.20;99.90;;;;;;4993355;28;20551;-65
2022/06/07 00:15:54;;;;;;;1.73;1.08;;;16.40;99.90;;;;;;4993313;28;20042;-65
2022/06/07 00:18:20;;;;;;;5.05;1.40;;;16.60;99.90;;;;;;4993357;28;20042;-65
2022/06/07 00:20:46;;;;;;;1.67;1.27;;;16.60;99.90;;;;;;4993344;28;20057;-65
2022/06/07 00:23:13;;;;;;;1.83;1.23;;;16.60;99.90;;;;;;4993435;28;20474;-64
2022/06/07 00:25:41;;;;;;;1.20;1.10;;;16.60;99.90;;;;;;4993530;28;20066;-64
2022/06/07 00:28:07;;;;;;;1.80;1.30;;;16.20;99.90;;;;;;4992917;28;20422;-65
2022/06/07 00:30:34;;;;;;;2.67;1.58;;;16.30;99.90;;;;;;4993382;28;20050;-65
2022/06/07 00:33:00;;;;;;;3.05;1.60;;;16.30;99.90;;;;;;4993224;28;20046;-65
2022/06/07 00:35:26;;;;;;;2.30;1.20;;;16.20;99.90;;;;;;4993448;28;20068;-64
2022/06/07 00:37:52;;;;;;;2.38;1.27;;;16.30;99.90;;;;;;4993297;28;20486;-65
2022/06/07 00:40:18;;;;;;;1.73;1.38;;;16.30;99.90;;;;;;4992985;28;20093;-65
2022/06/07 00:42:44;;;;;;;2.60;1.50;;;16.30;99.90;;;;;;4992924;28;20112;-65
2022/06/07 00:45:19;;;;;;;1.80;1.33;;;16.40;99.90;;;;;;4993075;28;20121;-65
2022/06/07 00:47:47;;;;;;;5.82;1.35;;;16.00;99.90;;;;;;4992999;28;20042;-64
2022/06/07 00:50:34;;;;;;;1.90;1.17;;;15.90;99.90;;;;;;4993509;28;20050;-64
2022/06/07 00:53:00;;;;;;;6.40;1.50;;;15.80;99.90;;;;;;4995589;28;20057;-65
2022/06/07 00:55:27;;;;;;;5.75;1.70;;;15.70;99.90;;;;;;4996993;28;20050;-65
2022/06/07 00:57:53;;;;;;;3.33;1.55;;;15.60;99.90;;;;;;4996992;28;20393;-64
2022/06/07 01:00:23;;;;;;;1.50;1.30;;;15.50;99.90;;;;;;4996715;28;20038;-65
2022/06/07 01:02:49;;;;;;;2.28;1.35;;;15.50;99.90;;;;;;4996712;28;20417;-64
2022/06/07 01:05:17;;;;;;;3.35;1.55;;;15.60;99.90;;;;;;4996580;28;20519;-64
2022/06/07 01:10:46;;;;;;;2.63;1.55;;;15.70;99.90;;;;;;4996754;28;20612;-64
2022/06/07 01:13:15;;;;;;;1.55;1.20;;;15.80;99.90;;;;;;4996560;28;20061;-65
2022/06/07 01:15:44;;;;;;;3.58;1.48;;;15.60;99.90;;;;;;4996781;28;20088;-64
2022/06/07 01:18:10;;;;;;;3.03;1.27;;;15.50;99.90;;;;;;4996591;28;20038;-64
2022/06/07 01:20:36;;;;;;;7.53;1.48;;;15.50;99.90;;;;;;4996203;28;20456;-64
2022/06/07 01:23:01;;;;;;;2.75;1.30;;;15.40;99.90;;;;;;4996335;28;20034;-64
2022/06/07 01:25:27;;;;;;;5.85;2.33;;;15.30;99.90;;;;;;4996440;28;20069;-65
2022/06/07 01:27:53;;;;;;;4.13;1.52;;;15.10;99.90;;;;;;4996275;28;20042;-65
2022/06/07 01:30:19;;;;;;;2.80;1.33;;;;;;;;;;4996015;28;20053;-65
2022/06/07 01:32:47;;;;;;;6.97;1.17;;;;;;;;;;4995728;28;20048;-65
2022/06/07 01:35:13;;;;;;;3.95;1.63;;;14.90;99.90;;;;;;4995929;28;20421;-65
2022/06/07 01:37:39;;;;;;;1.40;1.23;;;15.10;99.90;;;;;;4995966;28;20046;-65
2022/06/07 01:42:51;;;;;;;3.47;1.80;;;15.10;99.90;;;;;;4995876;28;20523;-65
2022/06/07 01:45:17;;;;;;;2.95;1.15;;;15.00;99.90;;;;;;4996143;28;20038;-65
2022/06/07 01:47:43;;;;;;;1.35;1.25;;;15.00;99.90;;;;;;4995965;28;20057;-65
2022/06/07 01:50:09;;;;;;;2.30;1.30;;;14.80;99.90;;;;;;4995644;28;20077;-64
2022/06/07 01:52:35;;;;;;;1.42;1.30;;;14.70;99.90;;;;;;4995388;28;20042;-64
2022/06/07 01:55:02;;;;;;;5.20;1.38;;;14.60;99.90;;;;;;4995561;28;20057;-64
2022/06/07 01:57:28;;;;;;;2.55;1.42;;;14.50;99.90;;;;;;4995500;28;20486;-64
2022/06/07 01:59:55;;;;;;;2.42;1.60;;;14.50;99.90;;;;;;4995653;28;20062;-65
2022/06/07 02:02:25;;;;;;;1.30;1.20;;;14.40;99.90;;;;;;4995780;28;20038;-64
2022/06/07 02:04:52;;;;;;;2.08;1.60;;;14.40;99.90;;;;;;4995600;28;20081;-64
2022/06/07 02:07:21;;;;;;;2.45;1.40;;;14.40;99.90;;;;;;4994049;28;20045;-64
2022/06/07 02:09:47;;;;;;;1.90;1.43;;;14.40;99.90;;;;;;4995476;28;20038;-64
2022/06/07 02:12:13;;;;;;;2.10;1.40;;;14.40;99.90;;;;;;4995359;28;20046;-64
2022/06/07 02:14:40;;;;;;;3.58;1.73;;;14.40;99.90;;;;;;4995227;28;20580;-65
2022/06/07 02:17:07;;;;;;;1.92;1.65;;;14.40;99.90;;;;;;4995179;28;20042;-64
2022/06/07 02:19:33;;;;;;;2.50;1.33;;;14.40;99.90;;;;;;4995460;28;20128;-64
2022/06/07 02:21:59;;;;;;;4.07;1.60;;;14.40;99.90;;;;;;4995343;28;20089;-64
2022/06/07 02:24:26;;;;;;;2.35;1.42;;;14.30;99.90;;;;;;4995284;28;20045;-64
2022/06/07 02:27:09;;;;;;;3.47;1.45;;;14.40;99.90;;;;;;4995312;28;20046;-65
2022/06/07 02:29:39;;;;;;;2.33;1.38;;;14.40;99.90;;;;;;4994856;28;20434;-64
2022/06/07 02:32:12;;;;;;;2.17;1.52;;;14.40;99.90;;;;;;4994705;28;20498;-64
2022/06/07 02:34:41;;;;;;;2.58;1.50;;;14.30;99.90;;;;;;4994686;28;20054;-64
2022/06/07 02:37:08;;;;;;;3.50;1.65;;;14.20;99.90;;;;;;4994995;28;20049;-64
2022/06/07 02:39:36;;;;;;;2.50;1.50;;;14.00;99.90;;;;;;4994793;28;20836;-64
2022/06/07 02:42:04;;;;;;;1.83;1.33;;;14.10;99.90;;;;;;4994803;28;20046;-64
2022/06/07 02:44:30;;;;;;;2.22;1.70;;;14.00;99.90;;;;;;4994625;28;20744;-65
2022/06/07 02:46:56;;;;;;;3.13;1.58;;;13.90;99.90;;;;;;4995055;28;20038;-64
2022/06/07 02:49:22;;;;;;;2.78;1.50;;;13.90;99.90;;;;;;4994783;28;20398;-64
2022/06/07 02:51:48;;;;;;;1.92;1.52;;;;;;;;;;4994593;28;20038;-65
2022/06/07 02:54:14;;;;;;;5.10;1.60;;;13.80;99.90;;;;;;4994250;28;20053;-64
2022/06/07 02:56:39;;;;;;;1.92;1.55;;;13.90;99.90;;;;;;4994416;28;20196;-65
2022/06/07 02:59:05;;;;;;;2.97;1.73;;;14.00;99.90;;;;;;4994508;28;20057;-64
2022/06/07 03:01:31;;;;;;;4.38;1.48;;;14.10;99.90;;;;;;4994537;28;20037;-65
2022/06/07 03:03:58;;;;;;;1.80;1.65;;;14.20;99.90;;;;;;4994331;28;20038;-65
2022/06/07 03:06:25;;;;;;;2.92;1.67;;;14.20;99.90;;;;;;4993972;28;20037;-64
2022/06/07 03:08:51;;;;;;;2.97;1.60;;;14.10;99.90;;;;;;4994398;28;20050;-64
2022/06/07 03:11:17;;;;;;;3.03;1.60;;;14.00;99.90;;;;;;4994466;28;20089;-64
2022/06/07 03:13:43;;;;;;;3.35;2.00;;;13.90;99.90;;;;;;4978524;28;20049;-65
2022/06/07 03:16:08;;;;;;;2.83;1.70;;;13.90;99.90;;;;;;4989364;28;20030;-65
2022/06/07 03:18:34;;;;;;;2.45;1.63;;;13.80;99.90;;;;;;4994040;28;20044;-65
2022/06/07 03:21:00;;;;;;;2.13;1.55;;;13.70;99.90;;;;;;4994149;28;20050;-64
2022/06/07 03:23:26;;;;;;;3.03;1.98;;;13.80;99.90;;;;;;4994155;28;20057;-64
2022/06/07 03:26:01;;;;;;;1.83;1.63;;;13.80;99.90;;;;;;4994036;28;20053;-64
2022/06/07 03:28:26;;;;;;;2.40;1.85;;;13.90;99.90;;;;;;4994075;28;20130;-64
2022/06/07 03:30:52;;;;;;;2.55;1.55;;;13.90;99.90;;;;;;4994331;28;20453;-65
2022/06/07 03:33:18;;;;;;;2.83;2.05;;;14.00;99.90;;;;;;4994010;28;20093;-65
2022/06/07 03:35:44;;;;;;;3.42;1.40;;;14.00;99.90;;;;;;4993861;28;20096;-64
2022/06/07 03:38:09;;;;;;;4.00;1.50;;;14.00;99.90;;;;;;4993943;28;20125;-64
2022/06/07 03:40:44;;;;;;;3.97;1.60;;;14.10;99.90;;;;;;4994027;28;20437;-64
2022/06/07 03:43:11;;;;;;;2.72;1.70;;;13.90;99.90;;;;;;4992402;28;20046;-64
2022/06/07 03:45:37;;;;;;;2.40;1.50;;;13.60;99.90;;;;;;4974529;28;20062;-65
2022/06/07 03:48:03;;;;;;;3.30;2.08;;;13.40;99.90;;;;;;4974188;28;20078;-64
2022/06/07 03:50:29;;;;;;;2.05;1.60;;;13.30;99.90;;;;;;4974264;28;20034;-64
2022/06/07 03:52:55;;;;;;;2.88;1.40;;;13.30;99.90;;;;;;4974132;28;20126;-64
2022/06/07 03:55:21;;;;;;;3.03;1.63;;;13.30;99.90;;;;;;4974208;28;20074;-64
2022/06/07 03:57:46;;;;;;;4.43;1.35;;;13.50;99.90;;;;;;4974178;28;20035;-64
2022/06/07 04:00:12;;;;;;;3.83;1.60;;;13.60;99.90;;;;;;4974196;28;20043;-64
2022/06/07 04:02:38;;;;;;;2.22;1.50;;;14.00;99.90;;;;;;4974159;28;20150;-65
2022/06/07 04:05:04;;;;;;;2.17;1.50;;;14.00;99.90;;;;;;4974367;28;20042;-65
2022/06/07 04:10:14;;;;;;;4.60;1.55;;;14.00;99.90;;;;;;4974320;28;20049;-64
2022/06/07 04:12:40;;;;;;;4.80;1.70;;;14.10;99.90;;;;;;4974143;28;20035;-65
2022/06/07 04:15:06;;;;;;;2.85;1.70;;;14.10;99.90;;;;;;4973991;28;20050;-64
2022/06/07 04:17:32;;;;;;;2.22;1.83;;;14.20;99.90;;;;;;4973985;28;20538;-64
2022/06/07 04:19:57;;;;;;;3.70;1.40;;;14.30;99.90;;;;;;4974150;28;20061;-64
2022/06/07 04:22:24;;;;;;;3.58;2.00;;;14.40;99.90;;;;;;4974088;28;20038;-65
2022/06/07 04:24:50;;;;;;;2.75;1.58;;;14.40;99.90;;;;;;4974079;28;20491;-64
2022/06/07 04:27:16;;;;;;;1.70;1.58;;;14.20;99.90;;;;;;4975582;28;20038;-65
2022/06/07 04:29:42;;;;;;;2.72;1.88;;;14.30;99.90;;;;;;4977561;28;20066;-64
2022/06/07 04:32:08;;;;;;;2.97;1.75;;;14.40;99.90;;;;;;4977548;28;20059;-65
2022/06/07 04:34:34;;;;;;;1.70;1.58;;;14.50;99.90;;;;;;4980184;28;20054;-64
2022/06/07 04:36:59;;;;;;;2.25;1.48;;;14.70;99.90;;;;;;4996953;28;20093;-65
2022/06/07 04:39:25;;;;;;;1.85;1.50;;;14.70;99.90;;;;;;4997056;28;20050;-64
2022/06/07 04:41:51;;;;;;;3.10;2.00;;;14.60;99.90;;;;;;4997045;28;20042;-64
2022/06/07 04:44:17;;;;;;;2.65;1.55;;;14.30;99.90;;;;;;4996858;28;20045;-64
2022/06/07 04:46:43;;;;;;;4.03;1.60;;;14.10;99.90;;;;;;4996966;28;20038;-65
2022/06/07 04:49:08;;;;;;;3.22;1.73;;;13.70;99.90;;;;;;4996823;28;20072;-65
2022/06/07 04:51:37;;;;;;;6.03;1.95;;;13.70;99.90;;;;;;4996883;28;20042;-65
2022/06/07 04:54:04;;;;;;;7.55;1.90;;;13.80;99.90;;;;;;4996811;28;20054;-65
2022/06/07 04:56:32;;;;;;;3.03;1.63;;;14.00;99.90;;;;;;4996911;28;20039;-65
2022/06/07 04:59:00;;;;;;;2.58;1.70;;;14.20;99.90;;;;;;4996860;28;20046;-65
2022/06/07 05:01:29;;;;;;;2.28;1.95;;;14.10;99.90;;;;;;4996889;28;20413;-64
2022/06/07 05:03:56;;;;;;;2.80;1.60;;;14.20;99.90;;;;;;4996729;28;20042;-65
2022/06/07 05:06:29;;;;;;;2.25;1.95;;;14.20;99.90;;;;;;4996763;28;20038;-64
2022/06/07 05:08:58;;;;;;;2.63;1.48;;;14.30;99.90;;;;;;4996606;28;20054;-64
2022/06/07 05:11:25;;;;;;;2.00;1.70;;;14.50;99.90;;;;;;4996378;28;20046;-64
2022/06/07 05:13:55;;;;;;;3.17;1.80;;;14.50;99.90;;;;;;4996604;28;20054;-64
2022/06/07 05:16:22;;;;;;;6.35;1.85;;;14.50;99.90;;;;;;4996648;28;20085;-65
2022/06/07 05:18:49;;;;;;;4.00;2.13;;;14.60;99.90;;;;;;4996502;28;20413;-65
2022/06/07 05:21:15;;;;;;;2.95;1.83;;;14.90;99.90;;;;;;4996546;28;20568;-65
2022/06/07 05:23:41;;;;;;;2.70;1.95;;;15.00;99.90;;;;;;4996435;28;20053;-64
2022/06/07 05:26:12;;;;;;;5.68;2.30;;;14.90;99.90;;;;;;4996119;28;20426;-65
2022/06/07 05:28:41;;;;;;;3.42;1.83;;;14.90;99.90;;;;;;4995115;28;20046;-65
2022/06/07 05:31:07;;;;;;;2.92;2.00;;;15.00;99.90;;;;;;4993406;28;20034;-64
2022/06/07 05:33:33;;;;;;;4.50;1.95;;;15.30;99.90;;;;;;4993150;28;20058;-64
2022/06/07 05:35:58;;;;;;;4.25;1.83;;;15.50;99.90;;;;;;4995036;28;20136;-65
2022/06/07 05:38:25;;;;;;;2.03;1.80;;;15.40;99.90;;;;;;4994469;28;20042;-64
2022/06/07 05:40:52;;;;;;;1.80;1.52;;;15.40;99.90;;;;;;4995499;28;20038;-64
2022/06/07 05:43:18;;;;;;;9.52;2.20;;;15.40;99.90;;;;;;4992892;28;20104;-64
2022/06/07 05:45:48;;;;;;;2.78;1.98;;;15.70;99.90;;;;;;4994948;28;20038;-64
2022/06/07 05:48:14;;;;;;;1.75;1.65;;;16.00;99.90;;;;;;4994745;28;20053;-64
2022/06/07 05:50:41;;;;;;;2.60;1.70;;;16.10;99.90;;;;;;4996060;28;20043;-65
2022/06/07 05:53:07;;;;;;;2.30;1.98;;;16.50;99.90;;;;;;4992648;28;20038;-65
2022/06/07 05:55:33;;;;;;;4.05;1.60;;;16.70;99.90;;;;;;4993429;28;20125;-65
2022/06/07 05:57:58;;;;;;;2.92;1.48;;;16.70;99.90;;;;;;4990224;28;20042;-66
2022/06/07 06:00:24;;;;;;;2.88;1.15;;;16.80;99.90;;;;;;4993287;28;20035;-66
2022/06/07 06:02:50;;;;;;;3.80;1.70;;;17.00;99.90;;;;;;4993866;28;20034;-66
2022/06/07 06:05:17;;;;;;;5.55;1.60;;;17.20;99.90;;;;;;4993367;28;20049;-66
2022/06/07 06:10:32;;;;;;;3.72;1.73;;;17.60;99.90;;;;;;4955351;28;20050;-66
2022/06/07 06:12:58;;;;;;;3.65;1.40;;;17.20;99.90;;;;;;4975548;28;20047;-66
2022/06/07 06:15:24;;;;;;;1.80;1.48;;;17.70;99.90;;;;;;4973947;28;20054;-66
2022/06/07 06:17:50;;;;;;;1.90;1.42;;;17.90;99.90;;;;;;4980658;28;20056;-66
2022/06/07 06:20:16;;;;;;;1.85;1.33;;;17.90;99.90;;;;;;4991708;28;20129;-66
2022/06/07 06:22:42;;;;;;;1.98;1.58;;;18.20;99.90;;;;;;4993552;28;20413;-66
2022/06/07 06:25:09;;;;;;;5.38;1.95;;;18.30;99.90;;;;;;4994202;28;20038;-66
2022/06/07 06:27:35;;;;;;;2.85;1.80;;;18.30;99.90;;;;;;4991828;28;20089;-66
2022/06/07 06:30:01;;;;;;;2.42;1.30;;;18.40;99.90;;;;;;4991952;28;20545;-66
2022/06/07 06:32:27;;;;;;;2.33;1.60;;;18.30;99.90;;;;;;4994575;28;20042;-67
2022/06/07 06:34:53;;;;;;;4.03;1.58;;;18.20;99.90;;;;;;4993328;28;20092;-66
2022/06/07 06:37:19;;;;;;;4.00;1.90;;;18.20;99.90;;;;;;4993411;28;20042;-66
2022/06/07 06:39:45;;;;;;;2.90;1.60;;;18.60;99.90;;;;;;4993045;28;20053;-66
2022/06/07 06:42:11;;;;;;;2.40;1.50;;;19.00;99.90;;;;;;4992830;28;20042;-66
2022/06/07 06:44:37;;;;;;;2.47;1.45;;;19.20;99.90;;;;;;4992954;28;20069;-66
2022/06/07 06:47:04;;;;;;;4.80;1.83;;;;;;;;;;4994211;28;20050;-67
2022/06/07 06:49:32;;;;;;;3.65;1.95;;;19.40;99.90;;;;;;4992006;28;20129;-66
2022/06/07 06:51:59;;;;;;;4.03;1.80;;;19.60;99.90;;;;;;4992613;28;20080;-66
2022/06/07 06:54:26;;;;;;;2.03;1.63;;;;;;;;;;4992212;28;20406;-66
2022/06/07 06:56:51;;;;;;;2.92;1.77;;;19.50;99.90;;;;;;4992823;28;20039;-66
2022/06/07 06:59:18;;;;;;;5.97;2.28;;;19.90;99.90;;;;;;4992444;28;20040;-66
2022/06/07 07:01:44;;;;;;;3.88;1.58;;;19.90;99.90;;;;;;4991294;28;20462;-66
2022/06/07 07:04:16;;;;;;;2.42;1.60;;;19.60;99.90;;;;;;4992335;28;20108;-66
2022/06/07 07:06:42;;;;;;;6.75;2.13;;;19.80;99.90;;;;;;4991794;28;20124;-66
2022/06/07 07:09:09;;;;;;;2.60;1.67;;;19.60;99.90;;;;;;4992443;28;20211;-66
2022/06/07 07:11:39;;;;;;;2.25;1.25;;;19.80;99.90;;;;;;4992391;28;20506;-66
2022/06/07 07:14:06;;;;;;;5.75;1.60;;;19.30;99.90;;;;;;4992246;28;20053;-67
2022/06/07 07:16:33;;;;;;;3.45;1.35;;;;;;;;;;4984814;28;20513;-66
2022/06/07 07:19:00;;;;;;;2.15;1.38;;;19.80;99.90;;;;;;4991457;28;20060;-67
2022/06/07 07:21:27;;;;;;;7.25;1.20;;;;;;;;;;4992467;28;20034;-66
2022/06/07 07:23:55;;;;;;;3.85;1.48;;;19.60;99.90;;;;;;4994033;28;20049;-66
2022/06/07 07:26:23;;;;;;;1.90;0.90;;;20.50;99.90;;;;;;4992629;28;20049;-66
2022/06/07 07:28:50;;;;;;;7.43;1.10;;;20.50;99.90;;;;;;4992511;28;20120;-66
2022/06/07 07:31:30;;;;;;;4.47;1.00;;;20.60;99.90;;;;;;4992067;28;20045;-66
2022/06/07 07:33:56;;;;;;;1.77;0.88;;;20.50;99.90;;;;;;4991735;28;20054;-66
2022/06/07 07:36:22;;;;;;;1.00;0.60;;;20.70;99.90;;;;;;4992353;28;20449;-66
2022/06/07 07:38:48;;;;;;;3.03;1.00;;;20.70;99.90;;;;;;4993092;28;20046;-66
2022/06/07 07:41:24;;;;;;;5.57;1.63;;;21.00;99.90;;;;;;4993973;28;20047;-66
2022/06/07 07:43:52;;;;;;;3.28;0.70;;;21.70;99.90;;;;;;4992222;28;20042;-66
2022/06/07 07:46:20;;;;;;;1.95;0.90;;;22.10;99.90;;;;;;4991603;28;20042;-65
2022/06/07 07:48:46;;;;;;;1.05;0.60;;;22.30;99.90;;;;;;4991889;28;20065;-66
2022/06/07 07:51:24;;;;;;;3.35;1.00;;;22.30;99.90;;;;;;4991805;28;20074;-66
2022/06/07 07:53:55;;;;;;;2.67;1.05;;;22.70;99.90;;;;;;4992316;28;20104;-66
2022/06/07 07:56:22;;;;;;;1.42;0.60;;;22.50;99.90;;;;;;4992045;28;20034;-66
2022/06/07 07:58:49;;;;;;;1.77;0.75;;;22.30;99.20;;;;;;4991964;28;20038;-66
2022/06/07 08:01:18;;;;;;;1.38;0.82;;;22.80;99.10;;;;;;4993237;28;20038;-66
2022/06/07 08:03:44;;;;;;;1.85;0.80;;;22.70;98.60;;;;;;4993630;28;20046;-66
2022/06/07 08:06:15;;;;;;;3.25;0.70;;;22.30;97.90;;;;;;4993605;28;20146;-66
2022/06/07 08:08:41;;;;;;;1.67;1.17;;;21.60;98.00;;;;;;4993627;28;20042;-65
2022/06/07 08:11:07;;;;;;;1.52;0.68;;;21.70;97.50;;;;;;4992839;28;20050;-66
2022/06/07 08:13:33;;;;;;;3.70;0.60;;;22.40;99.90;;;;;;4993352;28;20382;-66
2022/06/07 08:15:59;;;;;;;6.80;0.65;;;22.30;96.80;;;;;;4993252;28;20121;-66
2022/06/07 08:18:26;;;;;;;4.30;0.60;;;21.70;96.40;;;;;;4992285;28;20052;-65
2022/06/07 08:20:57;;;;;;;2.35;0.80;;;21.70;96.30;;;;;;4993373;28;20038;-65
2022/06/07 08:23:23;;;;;;;4.13;0.82;;;21.00;96.50;;;;;;4993472;28;20069;-65
2022/06/07 08:25:49;;;;;;;1.70;0.60;;;21.10;97.80;;;;;;4993619;28;20135;-65
2022/06/07 08:28:15;;;;;;;2.83;0.50;;;21.50;97.70;;;;;;4993592;28;20046;-66
2022/06/07 08:30:46;;;;;;;1.38;0.60;;;20.70;97.00;;;;;;4992546;28;20069;-66
2022/06/07 08:38:41;;;;;;;1.27;0.73;;;20.60;97.80;;;;;;4993093;28;20045;-65
2022/06/07 08:41:18;;;;;;;4.00;1.20;;;21.30;99.10;;;;;;4993095;28;20042;-66
2022/06/07 08:43:45;;;;;;;8.98;1.17;;;21.70;99.00;;;;;;4993084;28;20042;-66
2022/06/07 08:46:14;;;;;;;3.10;0.73;;;21.80;96.70;;;;;;4993103;28;20057;-65
2022/06/07 08:48:42;;;;;;;3.40;0.68;;;21.60;96.90;;;;;;4992851;28;20061;-65
2022/06/07 08:51:28;;;;;;;1.15;0.50;;;22.30;96.70;;;;;;4992392;28;20446;-66
2022/06/07 08:53:58;;;;;;;1.20;0.70;;;22.20;97.50;;;;;;4993205;28;20497;-66
2022/06/07 08:56:34;;;;;;;2.58;0.80;;;22.80;95.90;;;;;;4993287;28;20092;-65
2022/06/07 08:59:09;;;;;;;1.17;0.80;;;22.80;94.20;;;;;;4993343;28;20109;-65
2022/06/07 09:02:02;;;;;;;2.30;0.75;;;22.10;93.90;;;;;;4993350;28;20038;-65
2022/06/07 09:04:31;;;;;;;3.05;0.70;;;22.70;97.20;;;;;;4993202;28;20084;-66
2022/06/07 09:07:00;;;;;;;3.13;0.68;;;22.40;95.20;;;;;;4993118;28;20445;-65
2022/06/07 09:12:18;;;;;;;2.25;0.75;;;22.40;94.50;;;;;;4992892;28;20390;-65
2022/06/07 09:14:48;;;;;;;5.40;0.90;;;22.60;93.70;;;;;;4995118;28;20532;-66
2022/06/07 09:17:20;;;;;;;0.88;0.43;;;22.60;94.00;;;;;;4996496;28;20038;-66
2022/06/07 09:19:49;;;;;;;2.30;1.02;;;22.40;94.00;;;;;;4996070;28;20078;-66
2022/06/07 09:22:26;;;;;;;1.42;0.50;;;23.20;96.70;;;;;;4996579;28;20042;-66
2022/06/07 09:24:53;;;;;;;1.13;0.52;;;22.30;91.60;;;;;;4996192;28;20520;-65
2022/06/07 09:27:26;;;;;;;1.20;0.35;;;22.40;93.40;;;;;;4994260;28;20031;-66
2022/06/07 09:29:59;;;;;;;3.20;0.90;;;23.20;91.60;;;;;;4996147;28;20054;-66
2022/06/07 09:32:27;;;;;;;5.10;0.65;;;23.70;92.60;;;;;;4996216;28;20109;-66
2022/06/07 09:35:01;;;;;;;2.40;0.60;;;24.30;92.60;;;;;;4996295;28;20441;-66
2022/06/07 09:37:58;;;;;;;4.85;0.68;;;24.20;92.50;;;;;;4996133;28;20153;-66
2022/06/07 09:40:29;;;;;;;6.95;0.70;;;23.90;92.30;;;;;;4994799;28;20049;-66
2022/06/07 09:43:08;;;;;;;3.15;0.80;;;24.10;93.50;;;;;;4995740;28;20405;-66
2022/06/07 09:45:37;;;;;;;1.88;0.50;;;24.10;91.10;;;;;;4995852;28;20494;-66
2022/06/07 09:48:28;;;;;;;1.92;0.57;;;23.20;90.80;;;;;;4995871;28;20045;-66
2022/06/07 09:51:18;;;;;;;3.50;0.50;;;23.30;91.80;;;;;;4995856;28;20113;-66
2022/06/07 09:54:06;;;;;;;1.08;0.45;;;23.90;89.30;;;;;;4995749;28;20054;-65
2022/06/07 09:56:34;;;;;;;3.03;0.47;;;24.10;90.50;;;;;;4988602;28;20042;-66
2022/06/07 09:59:37;;;;;;;0.65;0.55;;;24.20;91.70;;;;;;4995877;28;20133;-66
2022/06/07 10:02:22;;;;;;;2.95;0.63;;;24.70;91.30;;;;;;4995950;28;20104;-66
2022/06/07 10:04:59;;;;;;;1.10;0.60;;;23.40;90.00;;;;;;4995819;28;20038;-66
2022/06/07 10:07:39;;;;;;;1.52;0.45;;;22.90;90.20;;;;;;4995507;28;20050;-66
2022/06/07 10:10:09;;;;;;;;;;;23.10;90.80;;;;;;4996066;28;20494;-65
2022/06/07 10:13:12;;;;;;;2.22;0.60;;;23.00;90.40;;;;;;4995419;28;19910;-66
2022/06/07 10:15:48;;;;;;;1.75;0.50;;;23.20;87.10;;;;;;4993855;28;20058;-66
2022/06/07 10:18:45;;;;;;;1.88;0.68;;;23.90;90.00;;;;;;4995436;28;20498;-66
2022/06/07 10:21:19;;;;;;;1.83;0.70;;;23.10;90.50;;;;;;4995544;28;20492;-66
2022/06/07 10:24:12;;;;;;;4.45;0.63;;;23.50;91.10;;;;;;4995410;28;20042;-66
2022/06/07 10:26:50;;;;;;;3.15;0.60;;;24.20;88.90;;;;;;4995499;28;20069;-66
2022/06/07 10:29:47;;;;;;;4.57;0.60;;;24.10;88.30;;;;;;4995475;28;20070;-66
2022/06/07 10:32:40;;;;;;;0.70;0.50;;;24.30;88.20;;;;;;4995226;28;20073;-66
2022/06/07 10:35:44;;;;;;;0.50;0.50;;;24.40;88.80;;;;;;4995264;28;20046;-66
2022/06/07 10:38:15;;;;;;;2.85;1.45;;;24.90;88.80;;;;;;4994985;28;20525;-66
2022/06/07 10:40:56;;;;;;;4.70;1.00;;;24.30;90.40;;;;;;4995070;28;20046;-66
2022/06/07 10:43:47;;;;;;;1.95;0.80;;;23.70;91.30;;;;;;4995163;28;20066;-66
2022/06/07 10:46:16;;;;;;;1.85;0.60;;;22.20;91.40;;;;;;4945410;28;20050;-66
2022/06/07 10:48:56;;;;;;;1.38;0.70;;;23.00;91.60;;;;;;4995002;28;20529;-66
2022/06/07 10:54:26;;;;;;;1.10;0.70;;;23.30;91.50;;;;;;4994760;28;20129;-66
2022/06/07 10:57:03;;;;;;;2.55;0.60;;;23.00;92.30;;;;;;4994910;28;20161;-66
2022/06/07 10:59:30;;;;;;;2.72;0.50;;;22.80;90.90;;;;;;4994704;28;20746;-66
2022/06/07 11:02:18;;;;;;;3.80;0.80;;;22.90;92.20;;;;;;4994917;28;20457;-66
2022/06/07 11:10:30;;;;;;;;;;;22.50;92.00;;;;;;4994916;28;20134;-66
2022/06/07 11:13:44;;;;;;;3.72;1.15;;;22.10;91.00;;;;;;4994386;28;20346;-66
2022/06/07 11:16:34;;;;;;;1.52;0.63;;;22.70;91.80;;;;;;4896353;29;20048;-66
2022/06/07 11:19:01;;;;;;;1.48;0.65;;;22.90;90.70;;;;;;4990865;28;20101;-66
2022/06/07 11:21:34;;;;;;;2.30;0.85;;;23.20;91.10;;;;;;4991762;28;20041;-65
2022/06/07 11:24:02;;;;;;;4.55;1.20;;;23.00;91.00;;;;;;4992029;28;20061;-65
2022/06/07 11:26:58;;;;;;;5.93;1.02;;;23.00;91.10;;;;;;4993751;28;20042;-65
2022/06/07 11:29:31;;;;;;;1.48;0.63;;;23.00;90.90;;;;;;4992945;28;20046;-65
2022/06/07 11:31:58;;;;;;;3.25;0.98;;;22.60;91.40;;;;;;4992482;28;20034;-66
2022/06/07 11:34:31;;;;;;;4.60;1.13;;;22.40;90.90;;;;;;4991874;28;20399;-66
2022/06/07 11:37:15;;;;;;;7.82;0.88;;;22.70;91.20;;;;;;4991266;28;20101;-66
2022/06/07 11:39:44;;;;;;;2.42;0.85;;;22.70;91.10;;;;;;4991938;28;20053;-65
2022/06/07 11:42:12;;;;;;;1.98;1.02;;;23.30;91.40;;;;;;4991678;28;20041;-66
2022/06/07 11:44:41;;;;;;;3.28;1.10;;;23.20;91.20;;;;;;4991819;28;20417;-66
2022/06/07 11:47:07;;;;;;;6.00;1.08;;;23.00;92.40;;;;;;4991544;28;20133;-66
2022/06/07 11:49:52;;;;;;;2.28;0.70;;;23.40;90.70;;;;;;4991710;28;20125;-66
2022/06/07 11:52:23;;;;;;;3.08;0.75;;;23.90;90.90;;;;;;4991242;28;20034;-66
2022/06/07 11:55:13;;;;;;;2.78;0.80;;;24.00;90.70;;;;;;4992977;28;20046;-65
2022/06/07 11:57:55;;;;;;;5.90;0.80;;;24.30;91.30;;;;;;4991145;28;20073;-65
2022/06/07 12:00:24;;;;;;;2.17;0.70;;;23.70;89.30;;;;;;4992445;28;20046;-65
2022/06/07 12:03:06;;;;;;;2.83;0.65;;;22.80;90.00;;;;;;4993418;28;20045;-65
2022/06/07 12:05:40;;;;;;;2.17;0.98;;;23.00;90.10;;;;;;4992079;28;20054;-66
2022/06/07 12:08:37;;;;;;;4.28;0.85;;;23.20;90.60;;;;;;4991413;28;20034;-66
2022/06/07 12:11:23;;;;;;;3.42;0.70;;;23.20;90.60;;;;;;4991666;28;20061;-66
2022/06/07 12:14:29;;;;;;;3.40;0.93;;;22.80;90.00;;;;;;4993090;28;20054;-66
2022/06/07 12:17:17;;;;;;;3.25;0.80;;;22.20;90.00;;;;;;4994129;28;20397;-66
2022/06/07 12:19:45;;;;;;;4.20;1.20;;;22.30;90.80;;;;;;4991451;28;20077;-66
2022/06/07 12:22:15;;;;;;;2.55;0.80;;;23.40;90.90;;;;;;4993579;28;20196;-66
2022/06/07 12:24:54;;;;;;;1.98;0.82;;;23.80;89.40;;;;;;4993585;28;20053;-66
2022/06/07 12:27:43;;;;;;;3.10;0.80;;;23.10;88.30;;;;;;4993750;28;20034;-66
2022/06/07 12:30:41;;;;;;;1.77;0.77;;;22.70;89.60;;;;;;4993576;28;20050;-66
2022/06/07 12:33:34;;;;;;;3.67;1.65;;;23.40;90.90;;;;;;4960631;28;20073;-66
2022/06/07 12:36:01;;;;;;;2.25;0.70;;;23.60;87.80;;;;;;4990564;28;20580;-66
2022/06/07 12:38:30;;;;;;;3.88;0.88;;;23.40;85.00;;;;;;4989360;28;20035;-66
2022/06/07 12:41:06;;;;;;;2.97;1.03;;;23.40;90.50;;;;;;4993174;28;20046;-66
2022/06/07 12:43:38;;;;;;;4.07;0.85;;;24.00;90.40;;;;;;4993081;28;20510;-65
2022/06/07 12:46:07;;;;;;;2.10;0.90;;;23.90;89.10;;;;;;4989355;28;20043;-65
2022/06/07 12:48:39;;;;;;;2.97;0.73;;;23.90;88.00;;;;;;4993118;28;20046;-66
2022/06/07 12:51:30;;;;;;;5.35;0.80;;;23.90;87.60;;;;;;4994945;28;20412;-65
2022/06/07 12:54:15;;;;;;;5.00;1.00;;;23.50;88.00;;;;;;4994515;28;20058;-65
2022/06/07 12:56:43;;;;;;;3.95;1.00;;;23.60;85.70;;;;;;4994948;28;20124;-65
2022/06/07 12:59:28;;;;;;;2.13;0.73;;;24.00;84.70;;;;;;4994515;28;20121;-66
2022/06/07 13:01:54;;;;;;;2.72;0.88;;;23.90;88.20;;;;;;4995796;28;20046;-65
2022/06/07 13:04:31;;;;;;;6.35;0.60;;;23.50;85.00;;;;;;4994585;28;20433;-65
2022/06/07 13:07:01;;;;;;;4.20;1.02;;;23.20;85.80;;;;;;4994526;28;20048;-65
2022/06/07 13:09:27;;;;;;;5.07;0.87;;;23.70;86.10;;;;;;4995406;28;20116;-65
2022/06/07 13:11:54;;;;;;;2.97;0.95;;;23.70;84.70;;;;;;4994735;28;20285;-65
2022/06/07 13:14:20;;;;;;;5.88;1.38;;;24.10;87.70;;;;;;4994554;28;20100;-65
2022/06/07 13:16:47;;;;;;;4.28;1.05;;;23.30;85.20;;;;;;4994382;28;20061;-65
2022/06/07 13:19:17;;;;;;;1.63;0.60;;;22.90;86.00;;;;;;4994060;28;20049;-65
2022/06/07 13:21:59;;;;;;;2.10;0.60;;;22.70;85.90;;;;;;4994486;28;20529;-65
2022/06/07 13:24:39;;;;;;;2.72;0.80;;;22.60;86.00;;;;;;4996334;28;20069;-65
2022/06/07 13:27:24;;;;;;;2.75;0.70;;;23.20;86.50;;;;;;4994563;28;20034;-66
2022/06/07 13:29:49;;;;;;;4.75;0.90;;;23.10;85.30;;;;;;4994200;28;20416;-66
2022/06/07 13:32:26;;;;;;;4.30;0.85;;;22.90;86.10;;;;;;4996369;28;20042;-65
2022/06/07 13:35:06;;;;;;;2.75;0.77;;;23.30;89.40;;;;;;4978317;28;20068;-65
2022/06/07 13:37:32;;;;;;;3.60;0.85;;;23.10;84.00;;;;;;4996111;28;20128;-65